sensor_id;sensor_type;location;lat;lon;timestamp;pressure;altitude;pressure_sealevel;temperature;humidity
84382;BME280;74572;51.834;5.820;2024-01-07T00:00:37;101801.31;;;1.02;82.37
84382;BME280;74572;51.834;5.820;2024-01-07T00:03:03;101802.91;;;1.02;82.48
84382;BME280;74572;51.834;5.820;2024-01-07T00:05:29;101804.03;;;0.97;82.35
84382;BME280;74572;51.834;5.820;2024-01-07T00:07:54;101810.25;;;1.00;82.42
84382;BME280;74572;51.834;5.820;2024-01-07T00:10:19;101816.34;;;1.02;82.75
84382;BME280;74572;51.834;5.820;2024-01-07T00:12:45;101809.22;;;0.98;82.32
84382;BME280;74572;51.834;5.820;2024-01-07T00:15:11;101818.34;;;0.98;82.62
84382;BME280;74572;51.834;5.820;2024-01-07T00:17:37;101817.44;;;0.97;82.88
84382;BME280;74572;51.834;5.820;2024-01-07T00:20:03;101823.69;;;1.01;82.59
84382;BME280;74572;51.834;5.820;2024-01-07T00:22:28;101829.59;;;1.01;82.51
84382;BME280;74572;51.834;5.820;2024-01-07T00:24:54;101829.59;;;1.01;82.87
84382;BME280;74572;51.834;5.820;2024-01-07T00:27:19;101826.03;;;0.99;83.13
84382;BME280;74572;51.834;5.820;2024-01-07T00:29:44;101827.63;;;0.99;83.24
84382;BME280;74572;51.834;5.820;2024-01-07T00:32:10;101834.44;;;1.00;83.25
84382;BME280;74572;51.834;5.820;2024-01-07T00:34:35;101835.16;;;0.99;82.46
84382;BME280;74572;51.834;5.820;2024-01-07T00:37:01;101832.34;;;0.96;83.41
84382;BME280;74572;51.834;5.820;2024-01-07T00:39:26;101835.41;;;0.93;83.21
84382;BME280;74572;51.834;5.820;2024-01-07T00:41:53;101840.41;;;0.93;83.29
84382;BME280;74572;51.834;5.820;2024-01-07T00:44:18;101837.75;;;0.92;83.45
84382;BME280;74572;51.834;5.820;2024-01-07T00:46:44;101841.69;;;0.90;83.57
84382;BME280;74572;51.834;5.820;2024-01-07T00:49:09;101850.81;;;0.89;83.36
84382;BME280;74572;51.834;5.820;2024-01-07T00:51:35;101844.59;;;0.86;83.55
84382;BME280;74572;51.834;5.820;2024-01-07T00:54:00;101845.31;;;0.85;83.70
84382;BME280;74572;51.834;5.820;2024-01-07T00:56:26;101844.59;;;0.86;83.64
84382;BME280;74572;51.834;5.820;2024-01-07T00:58:52;101847.97;;;0.86;84.03
84382;BME280;74572;51.834;5.820;2024-01-07T01:01:17;101854.94;;;0.89;84.14
84382;BME280;74572;51.834;5.820;2024-01-07T01:03:43;101852.09;;;0.86;84.06
84382;BME280;74572;51.834;5.820;2024-01-07T01:06:08;101865.69;;;0.88;83.74
84382;BME280;74572;51.834;5.820;2024-01-07T01:08:34;101866.41;;;0.87;84.09
84382;BME280;74572;51.834;5.820;2024-01-07T01:10:59;101864.47;;;0.84;84.35
84382;BME280;74572;51.834;5.820;2024-01-07T01:13:25;101868.91;;;0.87;84.37
84382;BME280;74572;51.834;5.820;2024-01-07T01:15:51;101871.25;;;0.85;84.21
84382;BME280;74572;51.834;5.820;2024-01-07T01:18:19;101871.41;;;0.87;84.09
84382;BME280;74572;51.834;5.820;2024-01-07T01:20:44;101869.81;;;0.87;84.52
84382;BME280;74572;51.834;5.820;2024-01-07T01:23:09;101876.03;;;0.91;84.15
84382;BME280;74572;51.834;5.820;2024-01-07T01:25:35;101875.31;;;0.92;84.24
84382;BME280;74572;51.834;5.820;2024-01-07T01:28:01;101873.69;;;0.92;84.29
84382;BME280;74572;51.834;5.820;2024-01-07T01:30:26;101886.94;;;0.91;84.32
84382;BME280;74572;51.834;5.820;2024-01-07T01:32:55;101880.72;;;0.88;84.35
84382;BME280;74572;51.834;5.820;2024-01-07T01:35:21;101889.28;;;0.90;84.69
84382;BME280;74572;51.834;5.820;2024-01-07T01:37:46;101889.63;;;0.93;84.68
84382;BME280;74572;51.834;5.820;2024-01-07T01:40:12;101889.63;;;0.93;84.41
84382;BME280;74572;51.834;5.820;2024-01-07T01:42:37;101894.28;;;0.90;84.62
84382;BME280;74572;51.834;5.820;2024-01-07T01:45:03;101900.75;;;0.88;84.40
84382;BME280;74572;51.834;5.820;2024-01-07T01:47:30;101904.88;;;0.87;84.50
84382;BME280;74572;51.834;5.820;2024-01-07T01:49:56;101903.59;;;0.91;84.27
84382;BME280;74572;51.834;5.820;2024-01-07T01:52:21;101909.66;;;0.93;84.28
84382;BME280;74572;51.834;5.820;2024-01-07T01:54:47;101911.09;;;0.91;84.31
84382;BME280;74572;51.834;5.820;2024-01-07T01:57:15;101918.06;;;0.93;84.26
84382;BME280;74572;51.834;5.820;2024-01-07T01:59:42;101913.22;;;0.95;84.17
84382;BME280;74572;51.834;5.820;2024-01-07T02:02:08;101911.44;;;0.94;83.71
84382;BME280;74572;51.834;5.820;2024-01-07T02:04:35;101913.22;;;0.95;83.51
84382;BME280;74572;51.834;5.820;2024-01-07T02:07:01;101919.25;;;0.97;83.94
84382;BME280;74572;51.834;5.820;2024-01-07T02:09:27;101918.38;;;0.96;84.13
84382;BME280;74572;51.834;5.820;2024-01-07T02:12:05;101923.25;;;0.95;83.94
84382;BME280;74572;51.834;5.820;2024-01-07T02:14:30;101934.16;;;0.95;83.75
84382;BME280;74572;51.834;5.820;2024-01-07T02:16:56;101935.91;;;0.96;84.10
84382;BME280;74572;51.834;5.820;2024-01-07T02:19:21;101929.16;;;0.95;83.57
84382;BME280;74572;51.834;5.820;2024-01-07T02:21:49;101936.50;;;0.94;83.59
84382;BME280;74572;51.834;5.820;2024-01-07T02:24:15;101930.59;;;0.93;83.74
84382;BME280;74572;51.834;5.820;2024-01-07T02:26:41;101935.44;;;0.92;83.83
84382;BME280;74572;51.834;5.820;2024-01-07T02:29:07;101932.94;;;0.92;83.54
84382;BME280;74572;51.834;5.820;2024-01-07T02:31:33;101935.97;;;0.89;83.69
84382;BME280;74572;51.834;5.820;2024-01-07T02:33:58;101940.09;;;0.89;84.23
84382;BME280;74572;51.834;5.820;2024-01-07T02:36:24;101942.59;;;0.89;83.81
84382;BME280;74572;51.834;5.820;2024-01-07T02:38:49;101948.84;;;0.92;83.74
84382;BME280;74572;51.834;5.820;2024-01-07T02:41:16;101950.13;;;0.89;84.22
84382;BME280;74572;51.834;5.820;2024-01-07T02:43:42;101953.34;;;0.88;83.97
84382;BME280;74572;51.834;5.820;2024-01-07T02:46:08;101953.91;;;0.85;84.32
84382;BME280;74572;51.834;5.820;2024-01-07T02:48:33;101955.72;;;0.79;84.44
84382;BME280;74572;51.834;5.820;2024-01-07T02:50:59;101966.31;;;0.77;84.09
84382;BME280;74572;51.834;5.820;2024-01-07T02:53:25;101957.41;;;0.72;84.33
84382;BME280;74572;51.834;5.820;2024-01-07T02:55:56;101971.88;;;0.74;84.80
84382;BME280;74572;51.834;5.820;2024-01-07T02:58:21;101966.53;;;0.71;84.40
84382;BME280;74572;51.834;5.820;2024-01-07T03:00:47;101965.28;;;0.67;84.77
84382;BME280;74572;51.834;5.820;2024-01-07T03:03:13;101968.84;;;0.69;84.93
84382;BME280;74572;51.834;5.820;2024-01-07T03:05:38;101970.66;;;0.71;84.93
84382;BME280;74572;51.834;5.820;2024-01-07T03:08:04;101979.38;;;0.74;84.58
84382;BME280;74572;51.834;5.820;2024-01-07T03:10:30;101974.22;;;0.73;84.94
84382;BME280;74572;51.834;5.820;2024-01-07T03:12:55;101978.84;;;0.77;84.74
84382;BME280;74572;51.834;5.820;2024-01-07T03:15:20;101973.50;;;0.74;84.78
84382;BME280;74572;51.834;5.820;2024-01-07T03:17:46;101974.56;;;0.76;84.61
84382;BME280;74572;51.834;5.820;2024-01-07T03:20:11;101976.00;;;0.74;84.79
84382;BME280;74572;51.834;5.820;2024-01-07T03:22:37;101972.94;;;0.76;84.20
84382;BME280;74572;51.834;5.820;2024-01-07T03:25:02;101987.00;;;0.83;84.36
84382;BME280;74572;51.834;5.820;2024-01-07T03:27:28;101982.53;;;0.80;83.91
84382;BME280;74572;51.834;5.820;2024-01-07T03:29:53;101983.44;;;0.81;84.16
84382;BME280;74572;51.834;5.820;2024-01-07T03:32:19;101984.28;;;0.88;84.21
84382;BME280;74572;51.834;5.820;2024-01-07T03:34:45;101989.84;;;0.86;83.34
84382;BME280;74572;51.834;5.820;2024-01-07T03:37:11;101986.81;;;0.88;83.89
84382;BME280;74572;51.834;5.820;2024-01-07T03:39:36;101988.25;;;0.86;84.06
84382;BME280;74572;51.834;5.820;2024-01-07T03:42:02;101987.56;;;0.80;83.85
84382;BME280;74572;51.834;5.820;2024-01-07T03:44:27;101991.66;;;0.80;83.30
84382;BME280;74572;51.834;5.820;2024-01-07T03:46:52;101994.19;;;0.80;83.50
84382;BME280;74572;51.834;5.820;2024-01-07T03:49:18;102002.41;;;0.79;83.52
84382;BME280;74572;51.834;5.820;2024-01-07T03:51:43;102002.09;;;0.76;83.39
84382;BME280;74572;51.834;5.820;2024-01-07T03:54:09;101994.78;;;0.70;83.65
84382;BME280;74572;51.834;5.820;2024-01-07T03:56:34;101996.41;;;0.69;83.80
84382;BME280;74572;51.834;5.820;2024-01-07T03:59:00;102007.13;;;0.68;84.11
84382;BME280;74572;51.834;5.820;2024-01-07T04:01:25;102005.34;;;0.67;83.93
84382;BME280;74572;51.834;5.820;2024-01-07T04:03:51;102003.56;;;0.66;84.17
84382;BME280;74572;51.834;5.820;2024-01-07T04:06:16;102017.69;;;0.66;83.82
84382;BME280;74572;51.834;5.820;2024-01-07T04:08:42;102013.59;;;0.59;83.77
84382;BME280;74572;51.834;5.820;2024-01-07T04:11:07;102016.84;;;0.58;83.76
84382;BME280;74572;51.834;5.820;2024-01-07T04:13:34;102019.03;;;0.55;84.43
84382;BME280;74572;51.834;5.820;2024-01-07T04:15:59;102022.59;;;0.57;84.03
84382;BME280;74572;51.834;5.820;2024-01-07T04:18:25;102024.03;;;0.55;83.97
84382;BME280;74572;51.834;5.820;2024-01-07T04:20:50;102029.56;;;0.53;83.89
84382;BME280;74572;51.834;5.820;2024-01-07T04:23:16;102030.47;;;0.53;84.38
84382;BME280;74572;51.834;5.820;2024-01-07T04:25:41;102036.91;;;0.51;83.90
84382;BME280;74572;51.834;5.820;2024-01-07T04:28:10;102043.16;;;0.55;84.15
84382;BME280;74572;51.834;5.820;2024-01-07T04:30:36;102039.94;;;0.56;84.18
84382;BME280;74572;51.834;5.820;2024-01-07T04:33:02;102045.25;;;0.59;83.78
84382;BME280;74572;51.834;5.820;2024-01-07T04:35:27;102042.94;;;0.60;83.62
84382;BME280;74572;51.834;5.820;2024-01-07T04:37:53;102046.84;;;0.65;83.73
84382;BME280;74572;51.834;5.820;2024-01-07T04:40:18;102046.69;;;0.64;83.20
84382;BME280;74572;51.834;5.820;2024-01-07T04:42:44;102043.66;;;0.59;83.50
84382;BME280;74572;51.834;5.820;2024-01-07T04:45:09;102053.28;;;0.63;83.49
84382;BME280;74572;51.834;5.820;2024-01-07T04:47:35;102058.69;;;0.59;83.52
84382;BME280;74572;51.834;5.820;2024-01-07T04:50:01;102047.94;;;0.60;83.56
84382;BME280;74572;51.834;5.820;2024-01-07T04:52:26;102057.63;;;0.57;83.66
84382;BME280;74572;51.834;5.820;2024-01-07T04:54:54;102058.50;;;0.58;83.61
84382;BME280;74572;51.834;5.820;2024-01-07T04:57:20;102060.84;;;0.56;83.16
84382;BME280;74572;51.834;5.820;2024-01-07T04:59:46;102065.50;;;0.53;83.70
84382;BME280;74572;51.834;5.820;2024-01-07T05:02:13;102070.16;;;0.50;83.18
84382;BME280;74572;51.834;5.820;2024-01-07T05:04:39;102072.69;;;0.50;82.99
84382;BME280;74572;51.834;5.820;2024-01-07T05:07:05;102072.50;;;0.49;83.34
84382;BME280;74572;51.834;5.820;2024-01-07T05:09:32;102066.25;;;0.45;82.93
84382;BME280;74572;51.834;5.820;2024-01-07T05:11:58;102083.06;;;0.46;83.15
84382;BME280;74572;51.834;5.820;2024-01-07T05:14:23;102081.28;;;0.45;83.14
84382;BME280;74572;51.834;5.820;2024-01-07T05:16:50;102087.72;;;0.43;83.52
84382;BME280;74572;51.834;5.820;2024-01-07T05:19:15;102087.72;;;0.43;83.57
84382;BME280;74572;51.834;5.820;2024-01-07T05:21:42;102090.94;;;0.42;83.26
84382;BME280;74572;51.834;5.820;2024-01-07T05:24:07;102083.81;;;0.38;83.46
84382;BME280;74572;51.834;5.820;2024-01-07T05:26:41;102094.88;;;0.40;83.29
84382;BME280;74572;51.834;5.820;2024-01-07T05:29:07;102103.97;;;0.47;83.13
84382;BME280;74572;51.834;5.820;2024-01-07T05:31:34;102104.31;;;0.50;82.88
84382;BME280;74572;51.834;5.820;2024-01-07T05:33:59;102106.81;;;0.57;82.38
84382;BME280;74572;51.834;5.820;2024-01-07T05:36:25;102105.03;;;0.56;82.71
84382;BME280;74572;51.834;5.820;2024-01-07T05:38:51;102101.09;;;0.51;82.53
84382;BME280;74572;51.834;5.820;2024-01-07T05:41:16;102110.41;;;0.52;82.64
84382;BME280;74572;51.834;5.820;2024-01-07T05:43:43;102124.16;;;0.55;82.77
84382;BME280;74572;51.834;5.820;2024-01-07T05:46:09;102125.94;;;0.56;82.74
84382;BME280;74572;51.834;5.820;2024-01-07T05:48:43;102124.72;;;0.53;82.43
84382;BME280;74572;51.834;5.820;2024-01-07T05:51:09;102121.47;;;0.54;82.56
84382;BME280;74572;51.834;5.820;2024-01-07T05:53:35;102130.97;;;0.49;82.65
84382;BME280;74572;51.834;5.820;2024-01-07T05:56:01;102135.25;;;0.50;82.67
84382;BME280;74572;51.834;5.820;2024-01-07T05:58:27;102135.25;;;0.50;82.82
84382;BME280;74572;51.834;5.820;2024-01-07T06:00:53;102144.38;;;0.50;82.09
84382;BME280;74572;51.834;5.820;2024-01-07T06:03:18;102142.94;;;0.52;82.17
84382;BME280;74572;51.834;5.820;2024-01-07T06:05:45;102146.69;;;0.48;82.50
84382;BME280;74572;51.834;5.820;2024-01-07T06:08:11;102155.47;;;0.52;82.16
84382;BME280;74572;51.834;5.820;2024-01-07T06:10:38;102161.19;;;0.51;81.66
84382;BME280;74572;51.834;5.820;2024-01-07T06:13:04;102169.41;;;0.50;81.48
84382;BME280;74572;51.834;5.820;2024-01-07T06:15:29;102175.84;;;0.48;81.56
84382;BME280;74572;51.834;5.820;2024-01-07T06:17:55;102182.28;;;0.46;81.23
84382;BME280;74572;51.834;5.820;2024-01-07T06:20:21;102170.47;;;0.45;81.10
84382;BME280;74572;51.834;5.820;2024-01-07T06:22:46;102181.03;;;0.42;81.24
84382;BME280;74572;51.834;5.820;2024-01-07T06:25:12;102177.47;;;0.40;81.56
84382;BME280;74572;51.834;5.820;2024-01-07T06:27:40;102180.34;;;0.36;80.94
84382;BME280;74572;51.834;5.820;2024-01-07T06:30:07;102179.28;;;0.34;80.85
84382;BME280;74572;51.834;5.820;2024-01-07T06:32:33;102184.28;;;0.34;81.30
84382;BME280;74572;51.834;5.820;2024-01-07T06:34:58;102190.69;;;0.39;80.88
84382;BME280;74572;51.834;5.820;2024-01-07T06:37:24;102202.84;;;0.43;80.24
84382;BME280;74572;51.834;5.820;2024-01-07T06:39:50;102202.31;;;0.39;80.10
84382;BME280;74572;51.834;5.820;2024-01-07T06:42:16;102206.44;;;0.38;80.92
84382;BME280;74572;51.834;5.820;2024-01-07T06:44:43;102205.00;;;0.40;80.76
84382;BME280;74572;51.834;5.820;2024-01-07T06:47:09;102217.19;;;0.37;79.91
84382;BME280;74572;51.834;5.820;2024-01-07T06:49:34;102218.25;;;0.32;80.05
84382;BME280;74572;51.834;5.820;2024-01-07T06:52:00;102213.25;;;0.32;80.38
84382;BME280;74572;51.834;5.820;2024-01-07T06:54:25;102230.75;;;0.32;80.19
84382;BME280;74572;51.834;5.820;2024-01-07T06:56:51;102222.19;;;0.30;79.99
84382;BME280;74572;51.834;5.820;2024-01-07T06:59:16;102223.25;;;0.32;79.89
84382;BME280;74572;51.834;5.820;2024-01-07T07:01:42;102228.25;;;0.32;79.83
84382;BME280;74572;51.834;5.820;2024-01-07T07:04:07;102228.97;;;0.31;79.92
84382;BME280;74572;51.834;5.820;2024-01-07T07:06:33;102237.91;;;0.29;79.79
84382;BME280;74572;51.834;5.820;2024-01-07T07:09:00;102239.69;;;0.30;79.00
84382;BME280;74572;51.834;5.820;2024-01-07T07:11:25;102243.44;;;0.26;78.96
84382;BME280;74572;51.834;5.820;2024-01-07T07:13:51;102245.41;;;0.22;79.16
84382;BME280;74572;51.834;5.820;2024-01-07T07:16:16;102245.25;;;0.13;78.96
84382;BME280;74572;51.834;5.820;2024-01-07T07:18:42;102257.19;;;0.09;79.13
84382;BME280;74572;51.834;5.820;2024-01-07T07:21:07;102262.53;;;0.05;79.59
84382;BME280;74572;51.834;5.820;2024-01-07T07:23:33;102262.03;;;0.00;79.16
84382;BME280;74572;51.834;5.820;2024-01-07T07:26:00;102259.16;;;-0.03;79.17
84382;BME280;74572;51.834;5.820;2024-01-07T07:28:26;102281.50;;;-0.05;79.18
84382;BME280;74572;51.834;5.820;2024-01-07T07:30:52;102279.00;;;-0.05;79.49
84382;BME280;74572;51.834;5.820;2024-01-07T07:33:18;102283.81;;;-0.06;79.11
84382;BME280;74572;51.834;5.820;2024-01-07T07:35:45;102277.19;;;-0.06;79.16
84382;BME280;74572;51.834;5.820;2024-01-07T07:38:11;102290.78;;;-0.04;79.05
84382;BME280;74572;51.834;5.820;2024-01-07T07:40:39;102297.56;;;-0.03;79.45
84382;BME280;74572;51.834;5.820;2024-01-07T07:43:05;102305.25;;;-0.01;78.87
84382;BME280;74572;51.834;5.820;2024-01-07T07:45:30;102305.97;;;-0.02;79.20
84382;BME280;74572;51.834;5.820;2024-01-07T07:47:55;102313.28;;;-0.04;79.11
84382;BME280;74572;51.834;5.820;2024-01-07T07:50:21;102322.59;;;-0.03;78.83
84382;BME280;74572;51.834;5.820;2024-01-07T07:52:48;102306.50;;;-0.05;79.17
84382;BME280;74572;51.834;5.820;2024-01-07T07:55:13;102316.31;;;-0.06;78.97
84382;BME280;74572;51.834;5.820;2024-01-07T07:57:39;102320.44;;;-0.07;78.82
84382;BME280;74572;51.834;5.820;2024-01-07T08:00:08;102315.25;;;-0.08;79.28
84382;BME280;74572;51.834;5.820;2024-01-07T08:02:33;102318.63;;;-0.08;78.76
84382;BME280;74572;51.834;5.820;2024-01-07T08:04:59;102321.13;;;-0.08;78.79
84382;BME280;74572;51.834;5.820;2024-01-07T08:07:24;102325.97;;;-0.09;79.32
84382;BME280;74572;51.834;5.820;2024-01-07T08:09:51;102334.34;;;-0.09;78.90
84382;BME280;74572;51.834;5.820;2024-01-07T08:12:16;102348.66;;;-0.08;78.93
84382;BME280;74572;51.834;5.820;2024-01-07T08:14:42;102348.28;;;-0.11;78.72
84382;BME280;74572;51.834;5.820;2024-01-07T08:17:07;102350.06;;;-0.10;79.07
84382;BME280;74572;51.834;5.820;2024-01-07T08:19:33;102353.09;;;-0.12;79.02
84382;BME280;74572;51.834;5.820;2024-01-07T08:21:58;102372.91;;;-0.14;78.91
84382;BME280;74572;51.834;5.820;2024-01-07T08:24:24;102356.13;;;-0.15;78.81
84382;BME280;74572;51.834;5.820;2024-01-07T08:26:50;102357.19;;;-0.13;78.98
84382;BME280;74572;51.834;5.820;2024-01-07T08:29:15;102364.88;;;-0.11;79.10
84382;BME280;74572;51.834;5.820;2024-01-07T08:31:41;102361.69;;;-0.10;79.11
84382;BME280;74572;51.834;5.820;2024-01-07T08:34:07;102363.28;;;-0.11;79.10
84382;BME280;74572;51.834;5.820;2024-01-07T08:36:33;102385.41;;;-0.14;78.51
84382;BME280;74572;51.834;5.820;2024-01-07T08:39:00;102373.44;;;-0.16;78.80
84382;BME280;74572;51.834;5.820;2024-01-07T08:41:26;102391.31;;;-0.20;78.63
84382;BME280;74572;51.834;5.820;2024-01-07T08:43:51;102386.44;;;-0.26;78.85
84382;BME280;74572;51.834;5.820;2024-01-07T08:46:17;102396.25;;;-0.27;79.10
84382;BME280;74572;51.834;5.820;2024-01-07T08:48:45;102395.38;;;-0.28;79.34
84382;BME280;74572;51.834;5.820;2024-01-07T08:51:10;102400.00;;;-0.31;78.79
84382;BME280;74572;51.834;5.820;2024-01-07T08:53:36;102394.81;;;-0.32;78.93
84382;BME280;74572;51.834;5.820;2024-01-07T08:56:02;102404.09;;;-0.31;79.03
84382;BME280;74572;51.834;5.820;2024-01-07T08:58:28;102406.59;;;-0.31;78.98
84382;BME280;74572;51.834;5.820;2024-01-07T09:00:53;102412.50;;;-0.31;79.21
84382;BME280;74572;51.834;5.820;2024-01-07T09:03:19;102416.41;;;-0.33;79.28
84382;BME280;74572;51.834;5.820;2024-01-07T09:05:44;102426.75;;;-0.37;79.51
84382;BME280;74572;51.834;5.820;2024-01-07T09:08:10;102418.19;;;-0.39;79.29
84382;BME280;74572;51.834;5.820;2024-01-07T09:10:36;102439.59;;;-0.41;79.55
84382;BME280;74572;51.834;5.820;2024-01-07T09:13:05;102428.19;;;-0.39;79.74
84382;BME280;74572;51.834;5.820;2024-01-07T09:15:31;102439.94;;;-0.38;79.94
84382;BME280;74572;51.834;5.820;2024-01-07T09:17:56;102444.44;;;-0.36;79.72
84382;BME280;74572;51.834;5.820;2024-01-07T09:20:23;102438.53;;;-0.36;79.38
84382;BME280;74572;51.834;5.820;2024-01-07T09:22:49;102444.44;;;-0.36;79.25
84382;BME280;74572;51.834;5.820;2024-01-07T09:25:16;102446.03;;;-0.36;79.24
84382;BME280;74572;51.834;5.820;2024-01-07T09:27:42;102455.31;;;-0.35;78.53
84382;BME280;74572;51.834;5.820;2024-01-07T09:30:11;102459.81;;;-0.32;79.31
84382;BME280;74572;51.834;5.820;2024-01-07T09:32:41;102462.69;;;-0.29;79.52
84382;BME280;74572;51.834;5.820;2024-01-07T09:35:07;102462.88;;;-0.28;79.31
84382;BME280;74572;51.834;5.820;2024-01-07T09:37:32;102460.00;;;-0.31;78.68
84382;BME280;74572;51.834;5.820;2024-01-07T09:39:58;102469.66;;;-0.27;78.57
84382;BME280;74572;51.834;5.820;2024-01-07T09:42:23;102469.66;;;-0.27;79.14
84382;BME280;74572;51.834;5.820;2024-01-07T09:44:50;102467.56;;;-0.24;78.59
84382;BME280;74572;51.834;5.820;2024-01-07T09:47:16;102468.63;;;-0.22;78.54
84382;BME280;74572;51.834;5.820;2024-01-07T09:49:42;102472.75;;;-0.22;78.44
84382;BME280;74572;51.834;5.820;2024-01-07T09:52:10;102483.44;;;-0.23;78.23
84382;BME280;74572;51.834;5.820;2024-01-07T09:54:38;102486.47;;;-0.26;78.28
84382;BME280;74572;51.834;5.820;2024-01-07T09:57:05;102481.28;;;-0.27;78.59
84382;BME280;74572;51.834;5.820;2024-01-07T09:59:36;102484.88;;;-0.25;78.30
84382;BME280;74572;51.834;5.820;2024-01-07T10:02:04;102489.38;;;-0.16;78.35
84382;BME280;74572;51.834;5.820;2024-01-07T10:04:30;102491.91;;;-0.09;77.13
84382;BME280;74572;51.834;5.820;2024-01-07T10:06:56;102490.88;;;-0.04;76.90
84382;BME280;74572;51.834;5.820;2024-01-07T10:09:29;102493.41;;;0.04;76.22
84382;BME280;74572;51.834;5.820;2024-01-07T10:11:58;102498.78;;;0.07;76.45
84382;BME280;74572;51.834;5.820;2024-01-07T10:14:24;102498.44;;;0.11;76.00
84382;BME280;74572;51.834;5.820;2024-01-07T10:16:51;102505.28;;;0.19;76.51
84382;BME280;74572;51.834;5.820;2024-01-07T10:19:24;102495.63;;;0.22;76.42
84382;BME280;74572;51.834;5.820;2024-01-07T10:22:04;102502.22;;;0.21;75.34
84382;BME280;74572;51.834;5.820;2024-01-07T10:24:37;102502.09;;;0.27;76.31
84382;BME280;74572;51.834;5.820;2024-01-07T10:27:06;102511.91;;;0.25;76.11
84382;BME280;74572;51.834;5.820;2024-01-07T10:29:33;102506.72;;;0.24;76.05
84382;BME280;74572;51.834;5.820;2024-01-07T10:31:59;102506.00;;;0.25;75.80
84382;BME280;74572;51.834;5.820;2024-01-07T10:34:35;102508.31;;;0.23;75.94
84382;BME280;74572;51.834;5.820;2024-01-07T10:37:04;102516.41;;;0.28;75.50
84382;BME280;74572;51.834;5.820;2024-01-07T10:39:32;102508.88;;;0.28;75.01
84382;BME280;74572;51.834;5.820;2024-01-07T10:41:57;102517.28;;;0.28;75.06
84382;BME280;74572;51.834;5.820;2024-01-07T10:44:29;102513.94;;;0.35;74.98
84382;BME280;74572;51.834;5.820;2024-01-07T10:46:56;102515.97;;;0.52;74.92
84382;BME280;74572;51.834;5.820;2024-01-07T10:49:25;102510.13;;;0.73;75.10
84382;BME280;74572;51.834;5.820;2024-01-07T10:52:11;102519.63;;;1.03;74.03
84382;BME280;74572;51.834;5.820;2024-01-07T10:54:37;102515.38;;;1.10;73.23
84382;BME280;74572;51.834;5.820;2024-01-07T10:57:32;102516.97;;;1.23;73.09
84382;BME280;74572;51.834;5.820;2024-01-07T11:00:00;102513.22;;;1.41;72.77
84382;BME280;74572;51.834;5.820;2024-01-07T11:02:26;102510.72;;;1.48;72.37
84382;BME280;74572;51.834;5.820;2024-01-07T11:05:34;102513.69;;;1.74;70.98
84382;BME280;74572;51.834;5.820;2024-01-07T11:08:11;102522.31;;;1.90;70.88
84382;BME280;74572;51.834;5.820;2024-01-07T11:10:43;102524.88;;;2.20;69.90
84382;BME280;74572;51.834;5.820;2024-01-07T11:13:10;102516.38;;;2.41;68.63
84382;BME280;74572;51.834;5.820;2024-01-07T11:15:50;102547.94;;;2.39;68.39
84382;BME280;74572;51.834;5.820;2024-01-07T11:18:54;102527.13;;;2.47;67.95
84382;BME280;74572;51.834;5.820;2024-01-07T11:21:21;102531.53;;;2.57;67.17
84382;BME280;74572;51.834;5.820;2024-01-07T11:23:52;102528.03;;;2.48;67.34
84382;BME280;74572;51.834;5.820;2024-01-07T11:26:31;102529.56;;;2.17;68.06
84382;BME280;74572;51.834;5.820;2024-01-07T11:29:00;102549.00;;;1.90;68.05
84382;BME280;74572;51.834;5.820;2024-01-07T11:34:04;102551.00;;;1.43;68.85
84382;BME280;74572;51.834;5.820;2024-01-07T11:36:30;102561.91;;;1.36;68.69
84382;BME280;74572;51.834;5.820;2024-01-07T11:38:57;102552.59;;;1.21;67.53
84382;BME280;74572;51.834;5.820;2024-01-07T11:41:25;102541.13;;;1.16;67.50
84382;BME280;74572;51.834;5.820;2024-01-07T11:43:57;102552.41;;;1.19;67.83
84382;BME280;74572;51.834;5.820;2024-01-07T11:46:27;102551.00;;;1.14;67.48
84382;BME280;74572;51.834;5.820;2024-01-07T11:48:55;102554.03;;;1.26;67.67
84382;BME280;74572;51.834;5.820;2024-01-07T11:51:29;102552.44;;;1.33;67.67
84382;BME280;74572;51.834;5.820;2024-01-07T11:54:00;102552.78;;;1.22;68.20
84382;BME280;74572;51.834;5.820;2024-01-07T11:56:28;102547.19;;;1.03;68.38
84382;BME280;74572;51.834;5.820;2024-01-07T11:58:53;102540.94;;;0.93;68.16
84382;BME280;74572;51.834;5.820;2024-01-07T12:01:21;102547.69;;;0.80;68.87
84382;BME280;74572;51.834;5.820;2024-01-07T12:03:47;102553.09;;;0.90;68.27
84382;BME280;74572;51.834;5.820;2024-01-07T12:06:16;102555.28;;;1.08;67.59
84382;BME280;74572;51.834;5.820;2024-01-07T12:08:43;102548.28;;;1.20;67.05
84382;BME280;74572;51.834;5.820;2024-01-07T12:11:13;102546.34;;;1.24;67.03
84382;BME280;74572;51.834;5.820;2024-01-07T12:13:39;102558.16;;;1.25;66.71
84382;BME280;74572;51.834;5.820;2024-01-07T12:16:06;102549.72;;;1.18;66.77
84382;BME280;74572;51.834;5.820;2024-01-07T12:18:32;102548.44;;;1.00;66.78
84382;BME280;74572;51.834;5.820;2024-01-07T12:20:59;102552.53;;;0.85;67.55
84382;BME280;74572;51.834;5.820;2024-01-07T12:23:25;102553.44;;;0.86;66.56
84382;BME280;74572;51.834;5.820;2024-01-07T12:25:55;102558.66;;;0.94;65.63
84382;BME280;74572;51.834;5.820;2024-01-07T12:28:31;102539.53;;;1.09;64.92
84382;BME280;74572;51.834;5.820;2024-01-07T12:30:57;102560.84;;;1.13;64.29
84382;BME280;74572;51.834;5.820;2024-01-07T12:33:22;102547.03;;;1.09;63.96
84382;BME280;74572;51.834;5.820;2024-01-07T12:35:49;102542.03;;;1.09;62.74
84382;BME280;74572;51.834;5.820;2024-01-07T12:38:14;102550.25;;;1.08;63.19
84382;BME280;74572;51.834;5.820;2024-01-07T12:40:40;102551.88;;;1.08;63.45
84382;BME280;74572;51.834;5.820;2024-01-07T12:43:05;102545.63;;;1.11;63.36
84382;BME280;74572;51.834;5.820;2024-01-07T12:45:35;102543.13;;;1.11;63.27
84382;BME280;74572;51.834;5.820;2024-01-07T12:48:00;102562.63;;;1.14;63.75
84382;BME280;74572;51.834;5.820;2024-01-07T12:50:28;102552.41;;;1.12;62.49
84382;BME280;74572;51.834;5.820;2024-01-07T12:52:55;102559.22;;;1.13;63.21
84382;BME280;74572;51.834;5.820;2024-01-07T12:55:20;102558.16;;;1.11;62.49
84382;BME280;74572;51.834;5.820;2024-01-07T12:57:46;102559.94;;;1.12;63.51